Polk Army Air Field
KPOE : now visible

Airfield :











YOU CAN JOIN US ON...

 
LOGIN :

Register | Disclaimer

   EN    FR    IT 

 









Legend :    VFR   Marginal VFR   IFR   Intensive IFR   Very Intensive IFR
Visi :
Ceiling :
>= 8 km
>= 3000ft
5 to 8 km
1000 to 3000 ft
1500m to 5 km
500 to 1000 ft
800 to 1500m
200 to 500 ft
< 800m
< 200 ft
Symbols :   Thunderstorms  Fog  Heavy snow  Heavy precipitations  Wind > 20 kt






- Airport Elevation : 330 ft


KPOE - Polk Army Air Field

CURRENT METAR :
  • 280858Z AUTO 00000KT 8SM CLR 01/M01 A3029 RMK AO2 SLP261 T00111015 57013

EXPIRED METARs :
  • 280758Z AUTO 00000KT 6SM BR CLR 01/M01 A3030 RMK AO2 SLP264 T00061015
  • 280658Z AUTO 00000KT 10SM CLR 01/M01 A3031 RMK AO2 SLP268 T00071011

TAF TAF KPOE
Valid from the 28 at 08:00 until the 29 at 14:00 UTC


280800Z 2808/2914 VRB06KT 9999 SKC QNH3023INS
BECMG 2815/2816 28010G15KT 9999 SKC 510043 QNH3031INS
BECMG 2900/2901 VRB06KT 9999 SKC QNH3025INS TX17/2821Z TN01/2810Z



MET'MAP, your aeronautical weather chart ! - Copyright ORBIFLY December 2007 - Disclaimer

ORBIFLY MET'MAP TEAM :

Programming & Development : Alexandra Zaïnal
Concept & original design : Baudouin d'Aumeries
Assistance for programming : Marc-Olivier Méhu
Technical & hardware support : Manuel Goepfert

Contact : metmap@orbifly.com




SOURCES & CREDITS :

   NOAA       Earth
Advisory